createdAt,value
2023-05-08T00:02:06.232Z,93.23
2023-05-08T00:04:34.628Z,93.08
2023-05-08T00:07:04.135Z,93.42
2023-05-08T00:09:32.501Z,93.35
2023-05-08T00:12:00.577Z,94.25
2023-05-08T00:14:29.064Z,94.53
2023-05-08T00:16:57.432Z,94.76
2023-05-08T00:19:25.900Z,94.89
2023-05-08T00:21:53.935Z,94.67
2023-05-08T00:24:23.727Z,94.68
2023-05-08T00:26:52.071Z,94.47
2023-05-08T00:29:20.060Z,94.50
2023-05-08T00:31:48.012Z,95.02
2023-05-08T00:34:16.702Z,95.54
2023-05-08T00:36:46.064Z,95.58
2023-05-08T00:39:14.291Z,95.89
2023-05-08T00:41:44.122Z,95.90
2023-05-08T00:44:12.911Z,95.79
2023-05-08T00:46:42.661Z,95.91
2023-05-08T00:49:14.857Z,95.78
2023-05-08T00:51:44.237Z,95.57
2023-05-08T00:54:12.772Z,95.75
2023-05-08T00:56:42.140Z,95.88
2023-05-08T00:59:15.317Z,95.76
2023-05-08T01:01:45.746Z,95.71
2023-05-08T01:04:13.756Z,95.99
2023-05-08T01:06:41.833Z,95.80
2023-05-08T01:09:10.313Z,95.86
2023-05-08T01:11:47.023Z,95.80
2023-05-08T01:14:23.022Z,95.86
2023-05-08T01:17:10.848Z,96.01
2023-05-08T01:20:06.340Z,95.77
2023-05-08T01:23:01.835Z,95.87
2023-05-08T01:26:12.485Z,95.89
2023-05-08T01:29:05.342Z,95.61
2023-05-08T01:31:48.653Z,95.91
2023-05-08T01:34:25.065Z,95.86
2023-05-08T01:36:59.433Z,95.95
2023-05-08T01:39:36.205Z,96.14
2023-05-08T01:42:08.908Z,95.79
2023-05-08T01:44:43.906Z,95.78
2023-05-08T01:47:13.181Z,95.71
2023-05-08T01:49:47.878Z,95.42
2023-05-08T01:52:21.997Z,95.60
2023-05-08T01:55:00.726Z,95.87
2023-05-08T01:57:31.151Z,95.65
2023-05-08T02:00:04.353Z,95.45
2023-05-08T02:02:38.579Z,95.31
2023-05-08T02:05:12.512Z,95.55
2023-05-08T02:07:42.247Z,96.11
2023-05-08T02:10:13.066Z,96.08
2023-05-08T02:12:42.458Z,95.73
2023-05-08T02:15:15.486Z,95.52
2023-05-08T02:17:46.141Z,95.12
2023-05-08T02:20:17.857Z,95.47
2023-05-08T02:22:49.311Z,95.96
2023-05-08T02:25:20.584Z,95.15
2023-05-08T02:27:50.569Z,95.65
2023-05-08T02:30:20.592Z,95.62
2023-05-08T02:32:50.879Z,95.82
2023-05-08T02:35:22.012Z,95.84
2023-05-08T02:37:54.804Z,95.41
2023-05-08T02:40:26.247Z,95.65
2023-05-08T02:42:54.860Z,95.28
2023-05-08T02:45:26.915Z,94.84
2023-05-08T02:48:06.855Z,94.80
2023-05-08T02:50:45.263Z,95.17
2023-05-08T02:53:20.029Z,95.73
2023-05-08T02:55:51.704Z,96.46
2023-05-08T02:58:25.637Z,96.53
2023-05-08T03:00:59.362Z,95.80
2023-05-08T03:03:34.605Z,95.73
2023-05-08T03:06:08.315Z,96.20
2023-05-08T03:08:38.588Z,96.06
2023-05-08T03:11:14.969Z,96.28
2023-05-08T03:13:46.148Z,95.89
2023-05-08T03:16:19.654Z,95.76
2023-05-08T03:18:53.917Z,96.02
2023-05-08T03:21:28.220Z,95.95
2023-05-08T03:23:59.280Z,96.36
2023-05-08T03:26:27.655Z,96.82
2023-05-08T03:28:57.452Z,96.53
2023-05-08T03:31:33.506Z,96.49
2023-05-08T03:34:03.435Z,96.40
2023-05-08T03:36:33.519Z,96.36
2023-05-08T03:39:02.557Z,96.89
2023-05-08T03:41:30.878Z,96.68
2023-05-08T03:44:00.162Z,96.86
2023-05-08T03:46:28.637Z,96.39
2023-05-08T03:49:00.292Z,96.50
2023-05-08T03:51:29.480Z,96.71
2023-05-08T03:53:59.586Z,97.09
2023-05-08T03:56:29.802Z,97.32
2023-05-08T03:59:10.896Z,96.95
2023-05-08T04:01:42.121Z,96.77
2023-05-08T04:04:19.010Z,97.20
2023-05-08T04:06:54.154Z,97.25
2023-05-08T04:09:38.373Z,96.91
2023-05-08T04:12:15.557Z,96.89
2023-05-08T04:14:46.756Z,96.88
2023-05-08T04:17:19.278Z,97.19
2023-05-08T04:19:57.109Z,97.07
2023-05-08T04:22:27.877Z,96.74
2023-05-08T04:24:59.223Z,97.12
2023-05-08T04:27:28.983Z,97.29
2023-05-08T04:29:57.978Z,97.30
2023-05-08T04:32:28.702Z,97.48
2023-05-08T04:34:57.152Z,97.90
2023-05-08T04:37:26.711Z,97.43
2023-05-08T04:39:59.052Z,97.08
2023-05-08T04:42:27.656Z,96.81
2023-05-08T04:44:59.661Z,96.54
2023-05-08T04:47:27.835Z,96.12
2023-05-08T04:49:55.867Z,95.75
2023-05-08T04:52:24.794Z,96.53
2023-05-08T04:54:52.692Z,96.19
2023-05-08T04:57:22.605Z,96.22
2023-05-08T04:59:52.748Z,95.67
2023-05-08T05:02:21.206Z,95.43
2023-05-08T05:04:51.194Z,95.30
2023-05-08T05:07:19.737Z,95.89
2023-05-08T05:09:48.337Z,94.99
2023-05-08T05:12:16.498Z,94.69
2023-05-08T05:14:48.543Z,94.58
2023-05-08T05:17:16.643Z,94.91
2023-05-08T05:19:44.596Z,94.25
2023-05-08T05:22:13.448Z,93.78
2023-05-08T05:24:42.215Z,92.99
2023-05-08T05:27:10.273Z,92.38
2023-05-08T05:29:39.513Z,91.98
2023-05-08T05:32:10.252Z,92.50
2023-05-08T05:34:39.603Z,92.32
2023-05-08T05:37:07.905Z,92.25
2023-05-08T05:39:37.855Z,92.16
2023-05-08T05:42:07.595Z,92.44
2023-05-08T05:44:35.756Z,91.77
2023-05-08T05:47:05.759Z,91.61
2023-05-08T05:49:36.371Z,91.51
2023-05-08T05:52:05.211Z,90.69
2023-05-08T05:54:33.596Z,90.49
2023-05-08T05:57:04.938Z,90.68
2023-05-08T05:59:33.007Z,90.48
2023-05-08T06:02:01.140Z,91.44
2023-05-08T06:04:29.781Z,90.59
2023-05-08T06:06:59.162Z,90.52
2023-05-08T06:09:27.555Z,89.91
2023-05-08T06:11:55.981Z,89.21
2023-05-08T06:14:24.554Z,88.91
2023-05-08T06:16:52.591Z,87.88
2023-05-08T06:19:21.574Z,87.79
2023-05-08T06:21:51.819Z,86.61
2023-05-08T06:24:23.095Z,86.55
2023-05-08T06:26:51.073Z,85.36
2023-05-08T06:29:19.461Z,86.73
2023-05-08T06:31:48.274Z,84.30
2023-05-08T06:34:16.220Z,83.95
2023-05-08T06:36:44.146Z,84.18
2023-05-08T06:39:12.961Z,84.63
2023-05-08T06:41:42.233Z,84.64
2023-05-08T06:44:10.803Z,83.31
2023-05-08T06:46:39.278Z,82.66
2023-05-08T06:49:07.307Z,82.40
2023-05-08T06:51:35.599Z,82.69
2023-05-08T06:54:08.350Z,83.06
2023-05-08T06:56:38.916Z,82.50
2023-05-08T06:59:09.477Z,83.04
2023-05-08T07:01:38.490Z,84.82
2023-05-08T07:04:06.640Z,84.78
2023-05-08T07:06:36.101Z,84.55
2023-05-08T07:09:04.482Z,84.43
2023-05-08T07:11:33.074Z,83.15
2023-05-08T07:14:01.733Z,82.04
2023-05-08T07:16:31.116Z,82.16
2023-05-08T07:18:59.408Z,83.84
2023-05-08T07:21:28.359Z,83.53
2023-05-08T07:23:56.368Z,81.77
2023-05-08T07:26:24.317Z,81.69
2023-05-08T07:28:54.641Z,81.92
2023-05-08T07:31:22.910Z,83.68
2023-05-08T07:33:52.929Z,82.92
2023-05-08T07:36:21.775Z,82.05
2023-05-08T07:38:49.744Z,83.53
2023-05-08T07:41:18.157Z,83.52
2023-05-08T07:43:47.140Z,83.18
2023-05-08T07:46:18.804Z,84.01
2023-05-08T07:48:47.690Z,84.43
2023-05-08T07:51:17.048Z,83.69
2023-05-08T07:53:45.470Z,84.55
2023-05-08T07:56:13.880Z,84.41
2023-05-08T07:58:42.700Z,84.51
2023-05-08T08:01:10.643Z,84.57
2023-05-08T08:03:39.623Z,84.00
2023-05-08T08:06:07.835Z,84.34
2023-05-08T08:08:37.639Z,84.59
2023-05-08T08:11:06.353Z,84.07
2023-05-08T08:13:34.580Z,83.92
2023-05-08T08:16:04.232Z,83.36
2023-05-08T08:18:36.095Z,82.68
2023-05-08T08:21:06.766Z,82.33
2023-05-08T08:23:35.771Z,82.28
2023-05-08T08:26:05.611Z,81.09
2023-05-08T08:28:33.832Z,81.58
2023-05-08T08:31:03.602Z,81.19
2023-05-08T08:33:31.958Z,80.74
2023-05-08T08:35:59.930Z,79.76
2023-05-08T08:38:28.888Z,78.73
2023-05-08T08:40:56.839Z,77.93
2023-05-08T08:43:26.834Z,77.87
2023-05-08T08:45:55.369Z,77.85
2023-05-08T08:48:27.429Z,79.82
2023-05-08T08:51:04.289Z,78.18
2023-05-08T08:53:36.271Z,79.07
2023-05-08T08:56:09.361Z,78.37
2023-05-08T08:58:46.819Z,78.13
2023-05-08T09:01:18.354Z,78.03
2023-05-08T09:03:48.327Z,78.94
2023-05-08T09:06:19.848Z,79.15
2023-05-08T09:08:48.615Z,78.70
2023-05-08T09:11:17.092Z,79.34
2023-05-08T09:13:46.939Z,78.30
2023-05-08T09:16:15.004Z,78.89
2023-05-08T09:18:43.039Z,77.63
2023-05-08T09:21:12.057Z,79.14
2023-05-08T09:23:56.195Z,78.07
2023-05-08T09:26:33.774Z,78.13
2023-05-08T09:29:13.895Z,77.00
2023-05-08T09:31:45.016Z,76.37
2023-05-08T09:34:24.728Z,77.02
2023-05-08T09:36:53.644Z,76.59
2023-05-08T09:39:26.505Z,75.66
2023-05-08T09:42:00.190Z,75.73
2023-05-08T09:44:29.765Z,76.30
2023-05-08T09:47:12.722Z,77.22
2023-05-08T09:49:40.947Z,76.39
2023-05-08T09:52:09.544Z,75.87
2023-05-08T09:54:37.796Z,76.37
2023-05-08T09:57:14.088Z,76.42
2023-05-08T09:59:44.414Z,76.42
2023-05-08T10:02:12.892Z,76.15
2023-05-08T10:04:40.935Z,76.34
2023-05-08T10:07:09.378Z,75.82
2023-05-08T10:09:49.707Z,75.97
2023-05-08T10:12:19.240Z,75.34
2023-05-08T10:14:48.618Z,75.88
2023-05-08T10:17:22.940Z,75.32
2023-05-08T10:19:53.788Z,75.21
2023-05-08T10:22:26.425Z,75.31
2023-05-08T10:24:58.561Z,75.86
2023-05-08T10:27:36.324Z,74.18
2023-05-08T10:30:06.600Z,74.06
2023-05-08T10:32:41.963Z,74.99
2023-05-08T10:35:12.130Z,74.10
2023-05-08T10:37:42.717Z,74.40
2023-05-08T10:40:12.159Z,73.85
2023-05-08T10:42:40.211Z,73.79
2023-05-08T10:45:11.712Z,73.57
2023-05-08T10:47:55.302Z,72.56
2023-05-08T10:50:36.459Z,73.66
2023-05-08T10:53:08.323Z,73.16
2023-05-08T10:55:39.024Z,73.53
2023-05-08T10:58:12.099Z,71.34
2023-05-08T11:01:14.465Z,72.91
2023-05-08T11:03:45.538Z,71.53
2023-05-08T11:06:15.375Z,71.35
2023-05-08T11:08:54.938Z,70.97
2023-05-08T11:11:28.318Z,71.03
2023-05-08T11:14:01.336Z,71.93
2023-05-08T11:17:08.497Z,71.12
2023-05-08T11:19:39.265Z,69.09
2023-05-08T11:22:24.531Z,69.63
2023-05-08T11:24:59.185Z,70.72
2023-05-08T11:28:05.573Z,69.98
2023-05-08T11:30:40.053Z,67.82
2023-05-08T11:33:31.815Z,68.10
2023-05-08T11:36:13.086Z,70.48
2023-05-08T11:38:41.407Z,70.21
2023-05-08T11:41:10.856Z,70.43
2023-05-08T11:44:15.205Z,69.37
2023-05-08T11:46:47.733Z,67.88
2023-05-08T11:49:19.643Z,68.89
2023-05-08T11:51:55.160Z,69.60
2023-05-08T11:54:24.690Z,68.44
2023-05-08T11:56:55.192Z,68.20
2023-05-08T11:59:23.584Z,66.87
2023-05-08T12:02:06.882Z,65.53
2023-05-08T12:04:44.609Z,68.54
2023-05-08T12:07:16.018Z,69.38
2023-05-08T12:09:44.165Z,70.25
2023-05-08T12:12:12.603Z,70.17
2023-05-08T12:14:40.546Z,69.29
2023-05-08T12:17:09.031Z,67.26
2023-05-08T12:19:37.329Z,64.73
2023-05-08T12:22:05.249Z,66.28
2023-05-08T12:24:35.728Z,66.29
2023-05-08T12:27:04.670Z,65.48
2023-05-08T12:29:37.664Z,66.17
2023-05-08T12:32:06.030Z,65.61
2023-05-08T12:34:34.079Z,61.45
2023-05-08T12:37:04.523Z,61.25
2023-05-08T12:39:38.492Z,62.14
2023-05-08T12:42:07.454Z,66.84
2023-05-08T12:44:35.410Z,69.13
2023-05-08T12:47:07.120Z,69.81
2023-05-08T12:49:35.529Z,67.31
2023-05-08T12:52:08.028Z,67.59
2023-05-08T12:54:41.543Z,66.61
2023-05-08T12:57:13.855Z,63.84
2023-05-08T12:59:43.206Z,60.68
2023-05-08T13:02:16.701Z,58.44
2023-05-08T13:04:45.327Z,59.92
2023-05-08T13:07:13.474Z,58.27
2023-05-08T13:09:57.590Z,62.41
2023-05-08T13:12:25.700Z,59.35
2023-05-08T13:14:54.071Z,58.13
2023-05-08T13:17:22.118Z,62.27
2023-05-08T13:19:50.086Z,63.67
2023-05-08T13:22:19.100Z,67.35
2023-05-08T13:24:48.395Z,65.81
2023-05-08T13:27:16.777Z,65.21
2023-05-08T13:29:45.222Z,62.74
2023-05-08T13:32:13.328Z,64.34
2023-05-08T13:34:47.619Z,65.94
2023-05-08T13:37:19.807Z,66.52
2023-05-08T13:39:49.145Z,66.19
2023-05-08T13:42:17.508Z,67.29
2023-05-08T13:44:45.509Z,66.11
2023-05-08T13:47:13.481Z,65.01
2023-05-08T13:49:42.351Z,65.53
2023-05-08T13:52:10.701Z,65.00
2023-05-08T13:54:39.131Z,64.69
2023-05-08T13:57:09.086Z,63.50
2023-05-08T13:59:37.060Z,64.65
2023-05-08T14:02:05.577Z,64.39
2023-05-08T14:04:33.900Z,65.32
2023-05-08T14:07:01.941Z,64.31
2023-05-08T14:09:30.901Z,64.57
2023-05-08T14:11:58.938Z,65.31
2023-05-08T14:14:28.756Z,66.42
2023-05-08T14:16:57.788Z,67.63
2023-05-08T14:19:25.735Z,67.56
2023-05-08T14:21:54.205Z,68.06
2023-05-08T14:24:22.672Z,68.51
2023-05-08T14:26:50.678Z,68.79
2023-05-08T14:29:19.379Z,69.88
2023-05-08T14:31:48.725Z,71.04
2023-05-08T14:34:17.296Z,70.19
2023-05-08T14:36:45.708Z,70.08
2023-05-08T14:39:13.684Z,70.42
2023-05-08T14:41:48.127Z,70.41
2023-05-08T14:44:28.393Z,70.50
2023-05-08T14:46:58.138Z,74.28
2023-05-08T14:49:36.616Z,75.82
2023-05-08T14:52:07.052Z,77.25
2023-05-08T14:54:35.328Z,77.55
2023-05-08T14:57:03.971Z,79.10
2023-05-08T14:59:32.448Z,80.62
2023-05-08T15:02:02.085Z,80.90
2023-05-08T15:04:31.274Z,80.84
2023-05-08T15:06:59.653Z,82.17
2023-05-08T15:09:28.030Z,82.63
2023-05-08T15:11:56.870Z,82.21
2023-05-08T15:14:25.300Z,82.43
2023-05-08T15:16:53.676Z,82.10
2023-05-08T15:19:23.477Z,82.34
2023-05-08T15:21:51.488Z,82.15
2023-05-08T15:24:19.396Z,82.03
2023-05-08T15:26:48.230Z,82.26
2023-05-08T15:29:16.157Z,81.63
2023-05-08T15:31:44.569Z,82.71
2023-05-08T15:34:12.966Z,82.97
2023-05-08T15:36:42.276Z,83.80
2023-05-08T15:39:10.589Z,84.44
2023-05-08T15:41:39.852Z,84.66
2023-05-08T15:44:07.975Z,84.68
2023-05-08T15:46:35.938Z,84.99
2023-05-08T15:49:05.792Z,85.25
2023-05-08T15:51:33.780Z,84.70
2023-05-08T15:54:04.002Z,84.19
2023-05-08T15:56:32.687Z,83.66
2023-05-08T15:59:00.621Z,83.45
2023-05-08T16:01:29.628Z,83.79
2023-05-08T16:03:57.714Z,84.48
2023-05-08T16:06:26.250Z,84.21
2023-05-08T16:08:54.652Z,84.03
2023-05-08T16:11:24.038Z,84.68
2023-05-08T16:13:53.487Z,84.78
2023-05-08T16:16:22.529Z,84.79
2023-05-08T16:18:50.457Z,85.37
2023-05-08T16:21:18.838Z,86.56
2023-05-08T16:23:47.445Z,88.05
2023-05-08T16:26:16.578Z,88.56
2023-05-08T16:28:45.869Z,89.26
2023-05-08T16:31:14.708Z,90.14
2023-05-08T16:33:43.471Z,90.18
2023-05-08T16:36:11.738Z,89.83
2023-05-08T16:38:39.712Z,89.68
2023-05-08T16:41:09.998Z,88.92
2023-05-08T16:43:38.091Z,88.52
2023-05-08T16:46:08.532Z,87.71
2023-05-08T16:48:37.003Z,86.54
2023-05-08T16:51:05.705Z,85.87
2023-05-08T16:53:33.715Z,85.58
2023-05-08T16:56:01.661Z,85.51
2023-05-08T16:58:29.627Z,85.76
2023-05-08T17:00:57.588Z,84.18
2023-05-08T17:03:27.532Z,83.49
2023-05-08T17:05:55.571Z,83.06
2023-05-08T17:08:23.547Z,82.69
2023-05-08T17:10:54.216Z,82.90
2023-05-08T17:13:22.193Z,82.45
2023-05-08T17:15:50.612Z,84.81
2023-05-08T17:18:19.067Z,86.28
2023-05-08T17:20:48.339Z,85.07
2023-05-08T17:23:16.556Z,84.03
2023-05-08T17:25:44.522Z,83.34
2023-05-08T17:28:12.694Z,82.94
2023-05-08T17:30:40.859Z,82.47
2023-05-08T17:33:09.177Z,83.61
2023-05-08T17:35:37.174Z,85.32
2023-05-08T17:38:06.661Z,83.83
2023-05-08T17:40:34.630Z,82.94
2023-05-08T17:43:06.467Z,83.45
2023-05-08T17:45:34.745Z,83.41
2023-05-08T17:48:03.125Z,83.21
2023-05-08T17:50:32.321Z,82.40
2023-05-08T17:53:00.289Z,82.35
2023-05-08T17:55:31.704Z,82.46
2023-05-08T17:58:00.233Z,82.30
2023-05-08T18:00:28.123Z,82.22
2023-05-08T18:02:58.063Z,81.44
2023-05-08T18:05:29.427Z,81.46
2023-05-08T18:07:57.391Z,81.64
2023-05-08T18:10:25.816Z,81.17
2023-05-08T18:12:55.111Z,81.64
2023-05-08T18:15:23.273Z,82.00
2023-05-08T18:17:53.545Z,81.93
2023-05-08T18:20:22.088Z,83.07
2023-05-08T18:22:51.057Z,83.15
2023-05-08T18:25:19.801Z,83.11
2023-05-08T18:27:50.035Z,83.33
2023-05-08T18:30:20.469Z,83.73
2023-05-08T18:32:48.458Z,83.94
2023-05-08T18:35:18.377Z,84.43
2023-05-08T18:37:46.360Z,84.94
2023-05-08T18:40:15.765Z,86.60
2023-05-08T18:42:44.277Z,86.80
2023-05-08T18:45:13.765Z,88.16
2023-05-08T18:47:43.130Z,89.00
2023-05-08T18:50:12.424Z,90.02
2023-05-08T18:52:40.809Z,90.33
2023-05-08T18:55:10.775Z,91.03
2023-05-08T18:57:39.232Z,91.72
2023-05-08T19:00:08.584Z,91.65
2023-05-08T19:02:37.151Z,91.95
2023-05-08T19:05:08.143Z,92.63
2023-05-08T19:07:36.318Z,93.32
2023-05-08T19:10:05.855Z,94.04
2023-05-08T19:12:33.813Z,94.90
2023-05-08T19:15:02.716Z,95.01
2023-05-08T19:17:30.696Z,95.51
2023-05-08T19:19:59.661Z,95.73
2023-05-08T19:22:28.912Z,95.63
2023-05-08T19:24:57.289Z,95.99
2023-05-08T19:27:25.698Z,96.05
2023-05-08T19:29:54.585Z,96.51
2023-05-08T19:32:22.917Z,96.69
2023-05-08T19:34:50.850Z,96.64
2023-05-08T19:37:19.309Z,96.43
2023-05-08T19:39:48.620Z,96.60
2023-05-08T19:42:16.603Z,96.45
2023-05-08T19:44:45.052Z,97.03
2023-05-08T19:47:13.700Z,96.68
2023-05-08T19:49:41.768Z,96.40
2023-05-08T19:52:09.961Z,96.06
2023-05-08T19:54:38.032Z,96.17
2023-05-08T19:57:08.338Z,96.49
2023-05-08T19:59:36.358Z,96.07
2023-05-08T20:02:05.323Z,96.08
2023-05-08T20:04:42.168Z,96.04
2023-05-08T20:07:20.543Z,95.67
2023-05-08T20:09:48.555Z,95.66
2023-05-08T20:12:17.892Z,95.55
2023-05-08T20:14:46.141Z,95.10
2023-05-08T20:17:14.911Z,95.36
2023-05-08T20:19:42.910Z,95.34
2023-05-08T20:22:12.505Z,95.53
2023-05-08T20:24:40.930Z,95.75
2023-05-08T20:27:08.910Z,95.87
2023-05-08T20:29:39.255Z,95.95
2023-05-08T20:32:08.753Z,95.80
2023-05-08T20:34:36.794Z,96.13
2023-05-08T20:37:06.123Z,96.08
2023-05-08T20:39:34.181Z,95.30
2023-05-08T20:42:03.156Z,95.50
2023-05-08T20:44:31.904Z,95.30
2023-05-08T20:47:01.982Z,94.68
2023-05-08T20:49:30.056Z,94.29
2023-05-08T20:51:58.175Z,94.52
2023-05-08T20:54:26.197Z,94.29
2023-05-08T20:56:54.590Z,89.41
2023-05-08T20:59:23.559Z,89.67
2023-05-08T21:01:51.530Z,85.73
2023-05-08T21:04:22.159Z,84.43
2023-05-08T21:06:52.000Z,81.46
2023-05-08T21:09:20.888Z,80.10
2023-05-08T21:11:49.029Z,78.96
2023-05-08T21:14:17.105Z,77.25
2023-05-08T21:16:45.351Z,77.41
2023-05-08T21:19:17.168Z,77.17
2023-05-08T21:21:47.847Z,76.41
2023-05-08T21:24:16.508Z,76.92
2023-05-08T21:26:44.691Z,76.98
2023-05-08T21:29:13.607Z,77.16
2023-05-08T21:31:43.172Z,76.33
2023-05-08T21:34:12.390Z,76.83
2023-05-08T21:36:40.811Z,76.30
2023-05-08T21:39:10.180Z,76.63
2023-05-08T21:41:39.171Z,76.87
2023-05-08T21:44:07.137Z,76.13
2023-05-08T21:46:35.768Z,76.44
2023-05-08T21:49:04.741Z,76.52
2023-05-08T21:51:32.948Z,76.63
2023-05-08T21:54:01.461Z,76.49
2023-05-08T21:56:31.591Z,76.57
2023-05-08T21:58:59.538Z,76.62
2023-05-08T22:01:28.475Z,76.51
2023-05-08T22:03:56.616Z,76.62
2023-05-08T22:06:25.647Z,76.44
2023-05-08T22:08:53.791Z,77.02
2023-05-08T22:11:22.473Z,77.22
2023-05-08T22:13:51.886Z,77.06
2023-05-08T22:16:20.710Z,77.21
2023-05-08T22:18:48.913Z,77.39
2023-05-08T22:21:16.892Z,77.59
2023-05-08T22:23:45.859Z,77.52
2023-05-08T22:26:14.021Z,77.48
2023-05-08T22:28:42.963Z,77.54
2023-05-08T22:31:12.711Z,77.27
2023-05-08T22:33:42.032Z,77.65
2023-05-08T22:36:10.790Z,77.91
2023-05-08T22:38:40.758Z,77.69
2023-05-08T22:41:09.978Z,78.07
2023-05-08T22:43:38.106Z,77.77
2023-05-08T22:46:07.258Z,77.99
2023-05-08T22:48:37.594Z,78.21
2023-05-08T22:51:06.662Z,78.35
2023-05-08T22:53:34.754Z,78.24
2023-05-08T22:56:03.912Z,77.92
2023-05-08T22:58:31.966Z,78.46
2023-05-08T23:01:01.147Z,78.26
2023-05-08T23:03:29.674Z,78.50
2023-05-08T23:05:59.121Z,78.20
2023-05-08T23:08:27.866Z,78.38
2023-05-08T23:10:56.400Z,78.32
2023-05-08T23:13:24.621Z,78.35
2023-05-08T23:15:53.237Z,78.52
2023-05-08T23:18:21.736Z,78.28
2023-05-08T23:20:49.707Z,78.10
2023-05-08T23:23:20.105Z,78.19
2023-05-08T23:25:48.024Z,78.01
2023-05-08T23:28:16.892Z,78.55
2023-05-08T23:30:44.826Z,78.09
2023-05-08T23:45:52.272Z,78.04
2023-05-08T23:48:20.097Z,78.35
2023-05-08T23:50:48.137Z,77.79
2023-05-08T23:53:17.135Z,77.94
2023-05-08T23:55:44.906Z,77.97
2023-05-08T23:58:13.182Z,77.90
